Latest Weather Observations for Devonport Airport

IDT60801

Issued at 4:31 pm EST Monday 3 August 2015 (issued every 30 minutes, with the page automatically refreshed every 10 minutes)

About weather observations | Map of weather stations | Latest weather observations for TAS | Other Formats
Station Details ID: 091126 Name: DEVONPORT AIRPORT Lat: -41.17 Lon: 146.43 Height: 8.0 m
Data from the previous 72 hours. | See also: Recent months at Devonport Airport
Date/Time
EST
Temp
°C
App
Temp
°C
Dew
Point
Rel
Hum
%
Delta-T
°C
Wind Press
QNH
hPa
Press
MSL
hPa
Rain
since 9 am
mm
Dir
 
Spd
km/h
Gust
km/h
Spd
kts
Gust
kts
03/04:30pm 6.1 -1.2 0.0 65 2.3 SW 28 39 15 21 1014.0 1014.1 2.6
03/04:00pm 7.0 0.1 0.0 61 2.7 SW 26 35 14 19 1013.3 1013.4 2.6
03/03:30pm 7.0 -1.6 0.5 63 2.6 SW 35 54 19 29 1013.0 1013.1 2.6
03/03:12pm 7.1 -0.5 0.5 63 2.6 SW 30 54 16 29 1012.4 1012.5 2.6
03/03:00pm 7.0 -0.5 0.9 65 2.4 WSW 30 46 16 25 1012.3 1012.4 2.6
03/02:30pm 6.6 -2.0 0.1 63 2.5 WSW 35 48 19 26 1011.6 1011.7 2.6
03/02:11pm 7.1 -0.8 1.2 66 2.4 WSW 32 50 17 27 1011.5 1011.6 2.6
03/02:00pm 7.0 -0.7 2.1 71 2.0 WSW 32 44 17 24 1011.5 1011.6 2.6
03/01:30pm 5.8 -4.6 2.1 77 1.5 WSW 46 69 25 37 1010.6 1010.7 2.4
03/01:15pm 5.8 -4.7 1.5 74 1.7 WSW 46 65 25 35 1010.5 1010.6 2.4
03/01:00pm 5.3 -4.2 2.0 79 1.3 WSW 41 56 22 30 1010.5 1010.6 2.4
03/12:48pm 4.9 -2.9 1.9 81 1.2 WSW 32 50 17 27 1010.4 1010.5 2.4
03/12:46pm 4.7 -2.3 2.1 83 1.0 WSW 28 50 15 27 1010.4 1010.5 2.4
03/12:39pm 3.7 -2.4 2.7 93 0.4 WSW 24 32 13 17 1010.5 1010.6 2.4
03/12:38pm 3.7 -2.4 2.7 93 0.4 WSW 24 32 13 17 1010.5 1010.6 2.4
03/12:30pm 3.1 -3.8 2.4 95 0.3 WSW 28 41 15 22 1010.3 1010.4 2.4
03/12:26pm 2.4 -5.6 1.7 95 0.3 WSW 33 48 18 26 1010.3 1010.4 2.4
03/12:11pm 2.7 -9.0 0.8 87 0.7 SW 52 74 28 40 1011.2 1011.3 0.8
03/12:10pm 3.0 -8.3 1.1 87 0.7 SW 50 74 27 40 1011.3 1011.4 0.8
03/12:05pm 3.6 -6.1 0.7 81 1.1 SW 41 74 22 40 1011.2 1011.3 0.4
03/12:00pm 5.4 -2.3 0.2 69 2.0 SW 30 54 16 29 1010.8 1010.9 0.0
03/11:39am 6.6 -1.1 0.1 63 2.5 WSW 30 48 16 26 1009.7 1009.8 0.0
03/11:30am 6.5 -1.6 0.8 67 2.2 WSW 33 46 18 25 1009.7 1009.8 0.0
03/11:23am 5.9 -1.4 0.3 67 2.2 WSW 28 46 15 25 1009.5 1009.6 0.0
03/11:00am 5.5 -2.5 1.6 76 1.6 WSW 33 46 18 25 1009.5 1009.6 0.0
03/10:43am 5.9 -1.6 1.1 71 1.9 W 30 57 16 31 1008.9 1009.0 0.0
03/10:30am 5.6 -1.4 1.9 77 1.5 W 28 39 15 21 1008.6 1008.7 0.0
03/10:00am 4.2 -4.6 1.1 80 1.2 W 37 50 20 27 1007.9 1008.0 0.0
03/09:58am 4.5 -4.2 1.7 82 1.1 W 37 50 20 27 1007.9 1008.0 0.0
03/09:39am 3.9 -4.1 0.1 76 1.4 WSW 32 54 17 29 1007.9 1008.0 0.0
03/09:30am 5.4 -1.0 1.0 73 1.7 WSW 24 33 13 18 1007.8 1007.9 0.0
03/09:00am 4.1 -4.5 0.1 75 1.5 W 35 44 19 24 1007.0 1007.1 6.4
03/08:30am 2.8 -3.3 0.4 84 0.9 W 22 28 12 15 1006.4 1006.5 6.4
03/08:08am 2.2 -5.8 0.1 86 0.8 WSW 32 50 17 27 1005.8 1005.9 6.4
03/08:00am 2.4 -7.0 0.0 84 0.9 W 39 50 21 27 1006.0 1006.1 6.4
03/07:51am 3.5 -4.9 -0.7 74 1.5 W 33 46 18 25 1006.1 1006.2 6.2
03/07:30am 2.9 -3.0 -0.7 77 1.3 W 20 28 11 15 1005.1 1005.2 6.2
03/07:00am 3.0 -5.3 -1.4 73 1.6 W 32 46 17 25 1004.4 1004.4 6.2
03/06:30am 3.1 -5.2 -0.5 77 1.3 W 33 44 18 24 1003.5 1003.5 6.2
03/06:00am 3.1 -4.4 -1.3 73 1.6 W 28 44 15 24 1002.8 1002.8 6.2
03/05:30am 2.1 -3.7 0.0 86 0.8 W 20 28 11 15 1002.5 1002.5 6.2
03/05:00am 2.7 -5.6 -0.1 82 1.0 WSW 33 54 18 29 1001.8 1001.8 6.2
03/04:57am 3.0 -5.1 -0.1 80 1.1 WSW 32 54 17 29 1001.8 1001.8 6.2
03/04:53am 3.5 -3.8 -0.1 77 1.3 W 28 54 15 29 1001.8 1001.8 6.2
03/04:30am 3.2 -2.3 0.3 81 1.1 W 19 32 10 17 1000.7 1000.7 6.2
03/04:00am 3.2 -4.8 0.1 80 1.2 W 32 43 17 23 1000.4 1000.4 6.2
03/03:30am 3.7 -4.9 0.1 77 1.4 W 35 46 19 25 1000.1 1000.1 6.2
03/03:08am 4.7 -4.5 1.2 78 1.4 W 39 57 21 31 1000.6 1000.6 6.2
03/03:00am 4.7 -3.1 1.9 82 1.1 W 32 39 17 21 1000.1 1000.1 6.2
03/02:30am 4.4 -3.7 0.9 78 1.4 W 33 46 18 25 1000.1 1000.1 6.2
03/02:00am 4.9 -3.1 1.4 78 1.4 W 33 43 18 23 1000.0 1000.0 6.2
03/01:30am 5.5 -3.6 1.8 77 1.5 W 39 46 21 25 999.5 999.5 6.2
03/01:00am 4.9 -2.1 2.1 82 1.1 W 28 37 15 20 999.0 999.0 6.2
03/12:30am 5.7 -4.0 2.9 82 1.2 WNW 43 54 23 29 999.6 999.6 6.2
03/12:00am 6.3 -2.9 3.5 82 1.2 WNW 41 54 22 29 998.9 998.9 6.2
 
Date/Time
EST
Temp
°C
App
Temp
°C
Dew
Point
Rel
Hum
%
Delta-T
°C
Wind Press
QNH
hPa
Press
MSL
hPa
Rain
since 9 am
mm
Dir
 
Spd
km/h
Gust
km/h
Spd
kts
Gust
kts
02/11:30pm 6.0 -3.2 3.3 83 1.1 WNW 41 54 22 29 998.8 998.8 6.2
02/11:00pm 6.4 -3.4 3.6 82 1.2 WNW 44 56 24 30 999.3 999.3 6.0
02/10:34pm 6.4 -1.6 3.9 84 1.1 WNW 35 57 19 31 999.2 999.2 6.0
02/10:30pm 6.1 -1.5 3.9 86 0.9 WNW 33 44 18 24 999.6 999.6 6.0
02/10:00pm 5.5 -2.2 3.2 85 1.0 W 33 50 18 27 1000.0 1000.0 6.0
02/09:56pm 5.6 -2.0 3.1 84 1.0 W 32 50 17 27 1000.1 1000.1 6.0
02/09:30pm 5.7 -1.0 3.7 87 0.8 WNW 28 39 15 21 1000.3 1000.3 5.6
02/09:15pm 5.0 -2.5 3.2 88 0.7 WNW 32 43 17 23 1000.5 1000.5 5.6
02/09:01pm 4.7 -4.3 2.7 87 0.8 W 39 57 21 31 1000.8 1000.8 5.6
02/09:00pm 4.8 -4.5 2.7 86 0.9 W 41 57 22 31 1001.1 1001.1 5.4
02/08:51pm 5.4 -2.2 3.1 85 0.9 W 32 50 17 27 1001.3 1001.3 4.6
02/08:48pm 5.4 -1.4 3.1 85 0.9 W 28 50 15 27 1001.4 1001.4 4.4
02/08:30pm 5.9 0.3 3.2 83 1.1 WNW 22 28 12 15 1001.1 1001.1 3.8
02/08:00pm 5.5 -1.4 2.5 81 1.2 W 28 43 15 23 1001.8 1001.8 3.8
02/07:30pm 6.8 -1.7 2.9 76 1.6 WNW 37 48 20 26 1001.6 1001.6 3.8
02/07:00pm 6.8 -3.0 3.1 77 1.6 WNW 44 56 24 30 1001.7 1001.7 3.8
02/06:30pm 6.5 -3.2 2.6 76 1.6 WNW 43 56 23 30 1001.3 1001.3 3.8
02/06:18pm 6.5 -1.4 2.4 75 1.7 WNW 33 52 18 28 1001.2 1001.2 3.8
02/06:00pm 6.3 -0.6 2.4 76 1.6 WNW 28 39 15 21 1001.0 1001.0 3.8
02/05:30pm 6.1 -2.5 2.4 77 1.5 WNW 37 48 20 26 1001.2 1001.2 3.8
02/05:07pm 7.0 -0.3 2.7 74 1.8 W 30 48 16 26 1001.3 1001.3 3.8
02/05:00pm 6.8 -0.1 2.5 74 1.8 W 28 33 15 18 1001.0 1001.0 3.8
02/04:30pm 7.4 -0.3 2.5 71 2.0 WNW 32 39 17 21 1000.8 1000.8 3.8
02/04:00pm 7.0 -0.6 3.1 76 1.6 WNW 32 39 17 21 1000.4 1000.4 3.8
02/03:50pm 6.8 -1.6 3.6 80 1.4 W 37 56 20 30 1000.5 1000.5 3.8
02/03:30pm 8.1 -1.7 2.4 67 2.4 W 43 52 23 28 1000.4 1000.4 3.6
02/03:00pm 8.6 0.8 3.0 68 2.4 W 33 44 18 24 999.7 999.7 3.6
02/02:33pm 8.4 0.8 3.1 69 2.3 W 32 50 17 27 999.6 999.6 3.6
02/02:30pm 8.3 0.3 1.9 64 2.6 W 33 50 18 27 999.5 999.5 3.6
02/02:00pm 8.3 -1.6 3.0 69 2.3 WSW 44 67 24 36 998.9 998.9 3.6
02/01:52pm 9.0 1.1 4.6 74 1.9 WSW 35 54 19 29 998.8 998.8 3.6
02/01:40pm 8.6 -1.6 5.4 80 1.4 W 48 67 26 36 998.6 998.6 3.6
02/01:39pm 8.5 -2.1 4.9 78 1.6 W 50 67 27 36 998.6 998.6 3.6
02/01:30pm 8.6 -3.5 6.2 85 1.1 WNW 59 74 32 40 998.3 998.3 3.6
02/01:24pm 8.6 -5.0 6.2 85 1.1 WNW 67 95 36 51 998.1 998.1 3.6
02/01:15pm 9.0 -4.8 7.1 88 0.9 NW 69 100 37 54 997.3 997.3 3.2
02/01:09pm 9.7 -2.2 7.1 84 1.2 NW 59 83 32 45 997.7 997.7 2.8
02/01:00pm 10.4 -0.8 7.5 82 1.4 NW 56 76 30 41 997.6 997.6 2.4
02/12:50pm 10.4 0.9 8.2 86 1.1 NW 48 69 26 37 998.2 998.2 2.4
02/12:44pm 10.3 0.3 7.7 84 1.2 NW 50 61 27 33 998.4 998.4 2.4
02/12:30pm 10.1 -1.3 7.5 84 1.2 NW 57 87 31 47 998.9 998.9 2.4
02/12:25pm 9.3 -1.7 6.9 85 1.1 NW 54 87 29 47 998.9 998.9 2.4
02/12:22pm 10.3 0.2 7.5 83 1.3 NW 50 70 27 38 999.3 999.3 2.0
02/12:18pm 10.3 0.6 7.7 84 1.2 NW 48 61 26 33 999.4 999.4 2.0
02/12:00pm 8.8 -3.1 6.9 88 0.9 NW 59 78 32 42 1000.1 1000.1 1.8
02/11:58am 9.5 -2.3 7.3 86 1.0 NW 59 78 32 42 1000.0 1000.0 1.8
02/11:44am 10.6 0.9 7.3 80 1.6 NW 48 70 26 38 1000.4 1000.4 1.6
02/11:40am 10.7 1.5 7.8 82 1.4 NW 46 56 25 30 1000.6 1000.6 1.6
02/11:30am 10.1 0.1 8.0 87 1.0 NW 50 61 27 33 1001.0 1001.0 1.6
02/11:18am 9.8 -0.3 7.6 86 1.0 NW 50 69 27 37 1001.5 1001.5 1.4
02/11:11am 10.4 0.3 7.3 81 1.5 NW 50 69 27 37 1001.5 1001.5 1.2
02/11:00am 11.2 0.7 7.3 77 1.9 NW 52 65 28 35 1001.8 1001.8 1.2
02/10:39am 11.1 2.8 7.8 80 1.6 NW 41 59 22 32 1002.4 1002.4 1.2
02/10:30am 10.3 2.7 7.7 84 1.2 NW 37 46 20 25 1002.7 1002.7 1.2
02/10:11am 9.3 2.4 7.3 87 0.9 WNW 33 52 18 28 1003.3 1003.3 1.2
02/10:10am 9.2 2.5 7.2 87 0.9 WNW 32 41 17 22 1003.4 1003.4 1.2
02/10:00am 9.1 2.2 7.2 88 0.9 WNW 33 43 18 23 1003.6 1003.6 1.0
02/09:52am 9.0 2.2 6.8 86 1.0 WNW 32 41 17 22 1003.7 1003.7 0.8
02/09:30am 9.6 2.7 6.3 80 1.5 WNW 32 44 17 24 1004.3 1004.3 0.0
02/09:27am 9.5 2.5 6.0 79 1.6 WNW 32 44 17 24 1004.3 1004.3 0.0
02/09:00am 8.6 3.9 5.9 83 1.2 WNW 20 24 11 13 1005.0 1005.0 0.0
02/08:30am 8.6 3.5 6.1 84 1.1 WNW 22 35 12 19 1005.3 1005.4 0.0
02/08:00am 7.9 2.7 5.5 85 1.1 W 22 26 12 14 1005.4 1005.5 0.0
02/07:30am 8.2 2.3 5.7 84 1.1 WNW 26 35 14 19 1005.8 1005.9 0.0
02/07:00am 8.1 1.4 5.4 83 1.2 WNW 30 35 16 19 1005.9 1006.0 0.0
02/06:42am 8.0 3.1 5.3 83 1.2 W 20 44 11 24 1006.2 1006.3 0.0
02/06:30am 7.5 4.0 5.5 87 0.9 WNW 13 24 7 13 1006.3 1006.4 0.0
02/06:00am 6.5 2.7 4.0 84 1.1 WSW 13 17 7 9 1006.7 1006.8 0.0
02/05:30am 8.1 2.5 5.4 83 1.2 WNW 24 30 13 16 1006.9 1007.0 0.0
02/05:00am 7.7 3.8 5.3 85 1.1 W 15 24 8 13 1007.2 1007.3 0.0
02/04:30am 6.4 4.0 4.1 85 1.0 W 6 11 3 6 1007.8 1007.9 0.0
02/04:00am 5.7 2.9 3.4 85 1.0 WSW 7 9 4 5 1008.2 1008.3 0.0
02/03:30am 5.7 1.4 3.2 84 1.0 W 15 17 8 9 1008.5 1008.6 0.0
02/03:00am 6.8 1.9 3.9 82 1.2 WNW 19 24 10 13 1009.0 1009.1 0.0
02/02:30am 7.1 2.2 4.2 82 1.3 WNW 19 24 10 13 1009.3 1009.4 0.0
02/02:00am 7.1 2.2 4.1 81 1.3 W 19 26 10 14 1009.6 1009.7 0.0
02/01:30am 7.4 1.1 4.0 79 1.5 WNW 26 33 14 18 1010.0 1010.1 0.0
02/01:00am 7.4 0.3 3.6 77 1.6 WNW 30 37 16 20 1010.0 1010.1 0.0
02/12:30am 7.2 0.5 3.8 79 1.5 WNW 28 41 15 22 1010.1 1010.2 0.0
02/12:00am 7.5 1.6 3.9 78 1.5 WNW 24 33 13 18 1010.5 1010.6 0.0
 
Date/Time
EST
Temp
°C
App
Temp
°C
Dew
Point
Rel
Hum
%
Delta-T
°C
Wind Press
QNH
hPa
Press
MSL
hPa
Rain
since 9 am
mm
Dir
 
Spd
km/h
Gust
km/h
Spd
kts
Gust
kts
01/11:30pm 7.0 1.8 3.4 78 1.5 W 20 28 11 15 1010.9 1011.0 0.0
01/11:00pm 7.4 0.7 3.5 76 1.7 WNW 28 33 15 18 1010.9 1011.0 0.0
01/10:30pm 6.8 1.2 3.4 79 1.4 W 22 32 12 17 1011.4 1011.5 0.0
01/10:00pm 7.2 0.1 3.6 78 1.5 WNW 30 39 16 21 1011.6 1011.7 0.0
01/09:30pm 7.2 1.2 3.4 77 1.6 WNW 24 30 13 16 1011.6 1011.7 0.0
01/09:00pm 6.9 3.0 3.2 77 1.6 W 13 30 7 16 1011.6 1011.7 0.0
01/08:30pm 6.3 3.6 2.6 77 1.5 WSW 6 9 3 5 1011.9 1012.0 0.0
01/08:00pm 5.5 1.9 2.7 82 1.1 W 11 13 6 7 1011.6 1011.7 0.0
01/07:30pm 6.3 1.6 2.9 79 1.4 W 17 24 9 13 1011.4 1011.5 0.0
01/07:00pm 6.8 1.8 3.6 80 1.4 W 19 24 10 13 1011.3 1011.4 0.0
01/06:30pm 7.2 1.2 3.4 77 1.6 W 24 32 13 17 1011.1 1011.2 0.0
01/06:00pm 7.9 0.7 3.0 71 2.1 WNW 30 41 16 22 1010.8 1010.9 0.0
01/05:30pm 7.8 1.3 2.9 71 2.1 WNW 26 35 14 19 1010.4 1010.5 0.0
01/05:00pm 7.9 1.0 2.4 68 2.3 W 28 41 15 22 1009.9 1010.0 0.0
01/04:30pm 8.5 -0.4 2.9 68 2.4 WNW 39 50 21 27 1009.5 1009.6 0.0
01/04:17pm 9.0 1.2 2.6 64 2.7 WNW 33 48 18 26 1009.5 1009.6 0.0
01/04:00pm 8.8 3.1 2.8 66 2.5 WNW 22 26 12 14 1009.5 1009.6 0.0
01/03:30pm 8.6 3.6 3.4 70 2.2 WNW 19 24 10 13 1009.2 1009.3 0.0
01/03:00pm 8.9 4.6 3.5 69 2.3 SW 15 20 8 11 1009.1 1009.2 0.0
01/02:30pm 9.9 3.1 3.2 63 2.9 WNW 28 37 15 20 1008.5 1008.6 0.0
01/02:00pm 9.4 1.4 3.6 67 2.5 WNW 35 43 19 23 1008.0 1008.1 0.0
01/01:30pm 9.9 4.4 3.9 66 2.6 W 22 37 12 20 1008.2 1008.3 0.0
01/01:00pm 7.3 1.5 2.4 71 2.0 SW 22 32 12 17 1008.4 1008.5 0.0
01/12:46pm 8.7 1.0 2.1 63 2.7 SW 32 54 17 29 1008.3 1008.4 0.0
01/12:43pm 8.9 1.1 1.8 61 2.9 WSW 32 54 17 29 1008.2 1008.3 0.0
01/12:41pm 10.3 2.6 2.2 57 3.4 WSW 32 50 17 27 1008.1 1008.2 0.0
01/12:30pm 10.4 2.6 2.0 56 3.5 WSW 32 41 17 22 1008.1 1008.2 0.0
01/12:00pm 9.9 1.9 0.5 52 3.8 W 32 44 17 24 1007.6 1007.7 0.0
01/11:30am 10.0 1.9 1.1 54 3.7 W 33 44 18 24 1007.7 1007.8 0.0
01/11:20am 9.6 1.5 0.0 51 3.8 W 32 50 17 27 1007.7 1007.8 0.0
01/11:00am 9.5 2.3 0.4 53 3.7 W 28 39 15 21 1007.6 1007.7 0.0
01/10:30am 8.7 0.8 1.1 59 3.1 WSW 32 43 17 23 1007.3 1007.4 0.0
01/10:03am 8.6 0.3 2.0 63 2.7 W 35 54 19 29 1006.4 1006.5 0.0
01/10:00am 8.8 1.1 2.4 64 2.7 W 32 39 17 21 1006.4 1006.5 0.0
01/09:30am 8.6 1.8 3.2 69 2.3 W 28 39 15 21 1005.7 1005.8 0.0
01/09:00am 8.0 2.0 3.3 72 2.0 W 24 33 13 18 1004.8 1004.9 5.6
01/08:30am 7.2 0.6 4.0 80 1.4 W 28 39 15 21 1004.5 1004.6 5.6
01/08:22am 7.7 0.3 5.0 83 1.2 W 33 46 18 25 1004.3 1004.4 5.6
01/08:00am 8.5 0.5 5.8 83 1.2 WNW 37 48 20 26 1003.2 1003.2 5.6
01/07:30am 8.4 0.4 5.9 84 1.1 WNW 37 46 20 25 1002.4 1002.4 5.6
01/07:00am 8.4 0.4 5.7 83 1.2 WNW 37 48 20 26 1002.0 1002.0 5.6
01/06:30am 8.6 1.8 6.7 88 0.9 WNW 32 41 17 22 1001.9 1001.9 5.4
01/06:00am 9.3 1.3 7.4 88 0.9 WNW 39 48 21 26 1001.2 1001.2 4.6
01/05:50am 9.5 2.4 7.9 90 0.8 WNW 35 44 19 24 1000.8 1000.8 4.4
01/05:49am 9.5 2.4 7.9 90 0.8 WNW 35 44 19 24 1000.7 1000.7 4.4
01/05:36am 9.8 -1.5 7.9 88 0.9 NW 57 80 31 43 1000.5 1000.5 4.2
01/05:30am 10.2 -0.8 9.3 94 0.4 NNW 57 76 31 41 999.7 999.7 4.0
01/05:22am 10.4 0.0 9.2 92 0.6 NNW 54 72 29 39 1000.3 1000.3 3.6
01/05:12am 10.3 -1.2 8.7 90 0.8 NNW 59 72 32 39 1000.1 1000.1 3.4
01/05:00am 10.2 -0.9 8.6 90 0.8 NNW 57 72 31 39 1000.2 1000.2 3.4
01/04:51am 10.3 -0.6 8.7 90 0.8 NNW 56 74 30 40 1000.4 1000.4 3.4
01/04:38am 10.2 -0.8 8.6 90 0.8 NW 56 76 30 41 1000.7 1000.7 3.4
01/04:31am 10.2 -0.4 8.3 88 0.9 NW 54 76 29 41 1000.7 1000.7 3.2
01/04:30am 10.2 -0.4 8.3 88 0.9 NW 54 69 29 37 1000.9 1000.9 3.2
01/04:28am 10.3 -0.3 8.6 89 0.8 NW 54 67 29 36 1001.0 1001.0 3.2
01/04:06am 10.4 0.0 7.8 84 1.3 NW 52 72 28 39 1001.3 1001.3 2.8
01/04:00am 10.4 0.1 8.2 86 1.1 NW 52 67 28 36 1001.7 1001.7 2.8
01/03:54am 10.3 0.7 7.9 85 1.2 NNW 48 67 26 36 1001.7 1001.7 2.8
01/03:33am 10.0 0.1 8.3 89 0.8 NNW 50 70 27 38 1002.3 1002.3 2.4
01/03:30am 9.9 0.0 8.3 90 0.8 NNW 50 69 27 37 1002.5 1002.5 2.4
01/03:28am 10.0 0.1 8.3 89 0.8 NNW 50 69 27 37 1002.6 1002.6 2.4
01/03:15am 9.9 -0.8 8.0 88 0.9 NNW 54 70 29 38 1002.9 1002.9 2.2
01/03:00am 10.1 0.1 7.7 85 1.2 NNW 50 65 27 35 1003.3 1003.3 2.0
01/02:56am 10.0 0.7 7.4 84 1.2 NNW 46 65 25 35 1003.4 1003.4 2.0
01/02:36am 9.8 -0.3 7.6 86 1.0 NNW 50 67 27 36 1004.1 1004.2 1.6
01/02:33am 9.8 0.4 7.2 84 1.2 NNW 46 67 25 36 1004.2 1004.3 1.6
01/02:30am 9.8 0.1 7.7 87 1.0 NNW 48 65 26 35 1004.4 1004.5 1.6
01/02:00am 9.8 -1.1 7.1 83 1.3 NNW 54 72 29 39 1005.0 1005.1 0.6
01/01:59am 9.8 -1.1 7.1 83 1.3 NNW 54 72 29 39 1005.0 1005.1 0.6
01/01:58am 9.8 -1.5 7.1 83 1.3 NNW 56 72 30 39 1004.8 1004.9 0.6
01/01:47am 10.1 -0.2 6.4 78 1.7 NNW 50 70 27 38 1004.8 1004.9 0.4
01/01:30am 10.8 0.8 6.2 73 2.1 NNW 48 59 26 32 1005.4 1005.5 0.2
01/01:00am 10.9 -0.3 5.7 70 2.4 NNW 54 72 29 39 1006.1 1006.2 0.2
01/12:59am 10.9 -0.3 5.9 71 2.3 NNW 54 72 29 39 1006.3 1006.4 0.2
01/12:51am 10.9 -0.4 5.4 69 2.5 NNW 54 72 29 39 1006.1 1006.2 0.2
01/12:39am 10.6 2.3 6.0 73 2.1 NNW 39 57 21 31 1006.6 1006.7 0.2
01/12:30am 10.0 1.9 6.9 81 1.5 NNW 39 50 21 27 1007.2 1007.3 0.2
01/12:00am 10.5 2.1 5.7 72 2.2 NNW 39 48 21 26 1008.4 1008.5 0.2
 
Date/Time
EST
Temp
°C
App
Temp
°C
Dew
Point
Rel
Hum
%
Delta-T
°C
Wind Press
QNH
hPa
Press
MSL
hPa
Rain
since 9 am
mm
Dir
 
Spd
km/h
Gust
km/h
Spd
kts
Gust
kts
31/11:30pm 10.1 2.3 5.1 71 2.3 NW 35 44 19 24 1009.1 1009.2 0.2
31/11:00pm 10.1 1.5 4.9 70 2.3 NNW 39 50 21 27 1010.0 1010.1 0.2
31/10:30pm 10.0 0.5 4.8 70 2.3 NNW 44 57 24 31 1010.4 1010.5 0.2
31/10:00pm 10.2 1.4 5.4 72 2.2 NNW 41 52 22 28 1010.4 1010.5 0.2
31/09:30pm 10.2 0.9 4.8 69 2.4 NNW 43 54 23 29 1011.0 1011.1 0.2
31/09:00pm 10.1 1.3 5.5 73 2.1 NNW 41 50 22 27 1011.0 1011.1 0.2
31/08:46pm 10.0 2.9 5.6 74 2.0 NNW 32 50 17 27 1011.4 1011.5 0.2
31/08:30pm 9.5 2.8 7.3 86 1.0 NNW 32 41 17 22 1011.9 1012.0 0.2
31/08:00pm 8.7 1.0 7.3 91 0.7 NW 37 48 20 26 1012.3 1012.4 0.2
31/07:45pm 9.6 2.3 7.0 84 1.2 NW 35 57 19 31 1012.2 1012.3 0.2
31/07:30pm 9.5 2.4 6.4 81 1.4 NW 33 41 18 22 1012.5 1012.6 0.2
31/07:00pm 9.5 2.7 6.9 84 1.2 NW 32 44 17 24 1012.4 1012.5 0.2
31/06:30pm 9.2 2.7 6.3 82 1.3 NW 30 39 16 21 1012.8 1012.9 0.2
31/06:00pm 8.7 2.6 6.7 87 0.9 NW 28 39 15 21 1013.2 1013.3 0.2
31/05:30pm 9.3 1.7 5.7 78 1.6 NW 35 43 19 23 1013.0 1013.1 0.2
31/05:00pm 9.1 2.1 6.0 81 1.4 NW 32 41 17 22 1013.0 1013.1 0.2
31/04:45pm 9.0 3.2 6.4 84 1.2 NW 26 33 14 18 1013.0 1013.1 0.2
31/04:34pm 8.4 0.8 5.7 83 1.2 NW 35 54 19 29 1013.0 1013.1 0.2
31/04:32pm 8.2 -0.2 5.8 85 1.1 NW 39 54 21 29 1013.1 1013.2 0.2

Other Formats:

Comma delimited format used in spreadsheet applications
http://www.bom.gov.au/fwo/IDT60801/IDT60801.95960.axf

JavaScript Object Notation format (JSON) in row-major order
http://www.bom.gov.au/fwo/IDT60801/IDT60801.95960.json